Time;durP1;ratioP1;P1;durP2;ratioP2;P2;SDS_P1;SDS_P2;PMS_P1;PMS_P2;Temp;Humidity;BMP_temperature;BMP_pressure;BME280_temperature;BME280_humidity;BME280_pressure;Samples;Min_cycle;Max_cycle;Signal;HPM_P1;HPM_P2
2022/06/26 00:00:10;;;;;;;5.50;3.42;;;;;;;;;;10286080;28;20089;-63
2022/06/26 00:05:11;;;;;;;6.93;3.10;;;;;;;;;;10286256;28;20114;-63
2022/06/26 00:10:10;;;;;;;4.15;3.40;;;;;;;;;;10282885;28;20513;-64
2022/06/26 00:15:08;;;;;;;13.20;3.72;;;;;;;;;;10282881;28;20107;-63
2022/06/26 00:20:07;;;;;;;4.53;3.17;;;;;;;;;;10282540;28;20099;-63
2022/06/26 00:25:08;;;;;;;8.13;3.65;;;;;;;;;;10281621;28;20076;-63
2022/06/26 00:30:07;;;;;;;6.50;3.63;;;;;;;;;;10282784;28;20084;-63
2022/06/26 00:35:07;;;;;;;4.90;3.58;;;;;;;;;;10282524;28;20053;-63
2022/06/26 00:40:08;;;;;;;9.10;3.47;;;;;;;;;;10278982;28;20056;-63
2022/06/26 00:45:07;;;;;;;6.18;3.20;;;;;;;;;;10283404;28;20089;-63
2022/06/26 00:50:07;;;;;;;4.63;2.90;;;;;;;;;;10304077;28;20080;-62
2022/06/26 00:55:10;;;;;;;5.60;3.55;;;;;;;;;;10286009;28;20084;-64
2022/06/26 01:00:10;;;;;;;3.73;3.07;;;;;;;;;;10283276;28;20075;-64
2022/06/26 01:05:09;;;;;;;8.52;3.35;;;;;;;;;;10283620;28;20080;-64
2022/06/26 01:10:08;;;;;;;9.65;3.40;;;;;;;;;;10282623;28;20076;-65
2022/06/26 01:15:09;;;;;;;4.22;2.95;;;;;;;;;;10285322;28;20062;-64
2022/06/26 01:20:10;;;;;;;5.40;3.10;;;;;;;;;;10282552;28;20053;-65
2022/06/26 01:25:10;;;;;;;6.07;3.95;;;;;;;;;;10277791;28;20510;-64
2022/06/26 01:30:09;;;;;;;5.50;3.10;;;;;;;;;;10278666;28;20472;-64
2022/06/26 01:35:08;;;;;;;11.90;5.35;;;;;;;;;;10283054;28;20048;-67
2022/06/26 01:40:12;;;;;;;5.80;4.10;;;;;;;;;;10287121;28;20052;-68
2022/06/26 01:45:10;;;;;;;4.82;4.32;;;;;;;;;;10278175;28;20088;-68
2022/06/26 01:50:10;;;;;;;6.22;4.05;;;;;;;;;;10281900;28;20077;-67
2022/06/26 01:55:11;;;;;;;5.68;3.58;;;;;;;;;;10277450;28;20087;-67
2022/06/26 02:00:11;;;;;;;4.63;3.58;;;;;;;;;;10279618;28;20051;-68
2022/06/26 02:05:11;;;;;;;4.28;3.42;;;;;;;;;;10281606;28;20084;-68
2022/06/26 02:15:41;;;;;;;6.53;3.50;;;;;;;;;;10116616;28;20089;-68
2022/06/26 02:20:40;;;;;;;8.00;3.85;;;;;;;;;;10223409;28;20076;-68
2022/06/26 02:25:42;;;;;;;4.35;3.50;;;;;;;;;;10296280;28;20067;-68
2022/06/26 02:30:40;;;;;;;4.47;3.40;;;;;;;;;;10280730;28;20084;-68
2022/06/26 02:35:39;;;;;;;4.05;3.45;;;;;;;;;;10277246;28;20513;-68
2022/06/26 02:40:38;;;;;;;6.07;3.60;;;;;;;;;;10276863;28;20056;-68
2022/06/26 02:45:37;;;;;;;4.25;3.50;;;;;;;;;;10276925;28;20049;-68
2022/06/26 02:50:36;;;;;;;6.10;3.50;;;;;;;;;;10282831;28;20068;-67
2022/06/26 02:55:35;;;;;;;4.85;2.95;;;;;;;;;;10275694;28;20462;-68
2022/06/26 03:00:34;;;;;;;6.63;3.38;;;;;;;;;;10302124;28;20059;-68
2022/06/26 03:05:34;;;;;;;5.65;3.05;;;;;;;;;;10302720;28;20413;-68
2022/06/26 03:10:32;;;;;;;4.88;3.78;;;;;;;;;;10276660;28;20084;-68
2022/06/26 03:15:33;;;;;;;5.13;3.30;;;;;;;;;;10274953;28;20052;-68
2022/06/26 03:20:32;;;;;;;4.97;3.20;;;;;;;;;;10301782;28;20045;-68
2022/06/26 03:25:33;;;;;;;3.60;3.15;;;;;;;;;;10275658;28;20073;-68
2022/06/26 03:30:32;;;;;;;4.05;3.40;;;;;;;;;;10302953;28;20087;-68
2022/06/26 03:35:30;;;;;;;11.80;3.90;;;;;;;;;;10284449;28;20049;-68
2022/06/26 03:40:31;;;;;;;5.13;4.60;;;;;;;;;;10297595;28;20473;-68
2022/06/26 03:45:32;;;;;;;5.60;3.78;;;;;;;;;;10281018;28;20072;-67
2022/06/26 03:50:31;;;;;;;4.97;3.90;;;;;;;;;;10282780;28;20072;-68
2022/06/26 03:55:33;;;;;;;4.13;3.72;;;;;;;;;;10282693;28;20433;-68
2022/06/26 04:00:33;;;;;;;9.25;3.90;;;;;;;;;;10305970;28;20517;-68
2022/06/26 04:05:31;;;;;;;5.78;3.75;;;;;;;;;;10282112;28;20555;-68
2022/06/26 04:10:30;;;;;;;13.15;10.30;;;;;;;;;;10297387;28;20068;-68
2022/06/26 04:15:28;;;;;;;5.47;3.97;;;;;;;;;;10304588;28;20057;-67
2022/06/26 04:20:28;;;;;;;7.93;6.55;;;;;;;;;;10289811;28;20073;-68
2022/06/26 04:25:30;;;;;;;;;;;;;;;;;;10303841;28;20111;-68
2022/06/26 04:30:29;;;;;;;9.77;4.70;;;;;;;;;;10280378;28;19956;-68
2022/06/26 04:35:29;;;;;;;6.18;5.00;;;;;;;;;;10279664;28;20080;-68
2022/06/26 04:40:29;;;;;;;11.15;6.50;;;;;;;;;;10301068;28;20084;-68
2022/06/26 04:45:27;;;;;;;10.48;4.25;;;;;;;;;;10301722;28;20072;-68
2022/06/26 04:50:30;;;;;;;7.43;6.57;;;;;;;;;;10276256;28;20482;-67
2022/06/26 04:55:29;;;;;;;7.55;5.85;;;;;;;;;;10300679;28;20481;-66
2022/06/26 05:00:27;;;;;;;7.95;4.85;;;;;;;;;;10276581;28;20076;-66
2022/06/26 05:05:33;;;;;;;11.68;4.05;;;;;;;;;;10275303;28;20080;-66
2022/06/26 05:10:53;;;;;;;8.90;4.05;;;;;;;;;;10275594;28;20404;-66
2022/06/26 05:15:52;;;;;;;8.43;3.97;;;;;;;;;;10279207;28;20076;-67
2022/06/26 05:20:51;;;;;;;6.90;4.43;;;;;;;;;;10279727;28;20808;-67
2022/06/26 05:25:51;;;;;;;7.90;4.38;;;;;;;;;;10304777;28;20048;-67
2022/06/26 05:30:50;;;;;;;6.85;4.65;;;;;;;;;;10315863;28;20202;-68
2022/06/26 05:35:48;;;;;;;6.45;4.53;;;;;;;;;;10316473;28;20069;-67
2022/06/26 05:40:49;;;;;;;9.20;4.93;;;;;;;;;;10304124;28;20072;-66
2022/06/26 05:45:48;;;;;;;10.80;6.63;;;;;;;;;;10305827;28;20067;-66
2022/06/26 05:51:05;;;;;;;20.08;11.05;;;;;;;;;;10294023;28;20076;-66
2022/06/26 05:56:11;;;;;;;7.93;6.90;;;;;;;;;;10286858;28;20053;-66
2022/06/26 06:01:28;;;;;;;10.52;7.80;;;;;;;;;;10286333;28;20072;-67
2022/06/26 06:06:35;;;;;;;12.27;8.93;;;;;;;;;;10281625;28;20049;-62
2022/06/26 06:11:38;;;;;;;9.07;7.13;;;;;;;;;;10273739;28;20092;-62
2022/06/26 06:16:36;;;;;;;5.70;4.22;;;;;;;;;;10273610;28;20068;-62
2022/06/26 06:21:35;;;;;;;5.93;4.25;;;;;;;;;;10274125;28;20079;-62
2022/06/26 06:26:33;;;;;;;5.05;4.25;;;;;;;;;;10284149;28;20453;-62
2022/06/26 06:31:43;;;;;;;12.70;5.15;;;;;;;;;;10293746;28;20087;-62
2022/06/26 06:36:43;;;;;;;12.73;4.55;;;;;;;;;;10272586;28;20084;-63
2022/06/26 06:41:42;;;;;;;11.40;4.85;;;;;;;;;;10272085;28;20079;-62
2022/06/26 06:46:44;;;;;;;6.22;5.32;;;;;;;;;;10291809;28;20072;-63
2022/06/26 06:51:46;;;;;;;10.27;4.40;;;;;;;;;;10280227;28;20095;-62
2022/06/26 06:56:44;;;;;;;8.93;5.53;;;;;;;;;;10276298;28;20076;-63
2022/06/26 07:01:44;;;;;;;6.97;4.50;;;;;;;;;;10278278;28;20082;-62
2022/06/26 07:06:43;;;;;;;8.57;4.72;;;;;;;;;;10279831;28;20045;-63
2022/06/26 07:11:41;;;;;;;8.60;4.63;;;;;;;;;;10283672;28;20084;-63
2022/06/26 07:16:44;;;;;;;5.97;5.07;;;;;;;;;;10285122;28;20081;-63
2022/06/26 07:21:43;;;;;;;8.07;5.60;;;;;;;;;;10284526;28;20072;-63
2022/06/26 07:26:42;;;;;;;10.55;5.22;;;;;;;;;;10283978;28;20568;-63
2022/06/26 07:31:41;;;;;;;10.55;5.60;;;;;;;;;;10284307;28;20090;-63
2022/06/26 07:36:45;;;;;;;11.50;6.00;;;;;;;;;;10284863;28;20099;-62
2022/06/26 07:41:44;;;;;;;7.22;5.32;;;;;;;;;;10282230;28;20076;-63
2022/06/26 07:46:43;;;;;;;8.25;5.20;;;;;;;;;;10282597;28;20045;-63
2022/06/26 07:51:50;;;;;;;11.77;5.78;;;;;;;;;;10285850;28;20471;-63
2022/06/26 07:56:50;;;;;;;7.90;4.88;;;;;;;;;;10279508;28;20076;-63
2022/06/26 08:01:48;;;;;;;6.57;4.70;;;;;;;;;;10288728;28;20413;-63
2022/06/26 08:06:47;;;;;;;9.70;5.22;;;;;;;;;;10281111;28;20049;-63
2022/06/26 08:11:46;;;;;;;12.30;5.43;;;;;;;;;;10281011;28;20502;-63
2022/06/26 08:16:45;;;;;;;7.90;5.50;;;;;;;;;;10280996;28;20079;-63
2022/06/26 08:22:01;;;;;;;8.63;4.45;;;;;;;;;;10291012;28;20087;-62
2022/06/26 08:27:01;;;;;;;7.50;5.55;;;;;;;;;;10281159;28;20083;-63
2022/06/26 08:31:59;;;;;;;8.98;5.72;;;;;;;;;;10280040;28;20941;-64
2022/06/26 08:36:58;;;;;;;15.90;11.55;;;;;;;;;;10280083;28;20439;-64
2022/06/26 08:41:57;;;;;;;28.73;12.65;;;;;;;;;;10279637;28;20079;-63
2022/06/26 08:46:58;;;;;;;19.40;12.60;;;;;;;;;;10280292;28;20459;-63
2022/06/26 08:51:56;;;;;;;16.90;7.10;;;;;;;;;;10282465;28;20087;-63
2022/06/26 08:56:55;;;;;;;29.50;18.85;;;;;;;;;;10282399;28;20040;-63
2022/06/26 09:01:53;;;;;;;35.35;8.65;;;;;;;;;;10279893;28;20064;-63
2022/06/26 09:06:54;;;;;;;13.63;6.68;;;;;;;;;;10279978;28;20438;-63
2022/06/26 09:11:54;;;;;;;10.80;6.40;;;;;;;;;;10279625;28;20096;-64
2022/06/26 09:16:53;;;;;;;15.50;5.68;;;;;;;;;;10281299;28;20071;-63
2022/06/26 09:21:53;;;;;;;9.75;4.85;;;;;;;;;;10290504;28;20533;-63
2022/06/26 09:27:04;;;;;;;10.88;6.20;;;;;;;;;;10287456;28;20081;-64
2022/06/26 09:32:09;;;;;;;7.03;5.25;;;;;;;;;;10292836;28;20073;-64
2022/06/26 09:37:10;;;;;;;9.68;4.97;;;;;;;;;;10279085;28;20084;-64
2022/06/26 09:42:18;;;;;;;9.90;6.28;;;;;;;;;;10286678;28;20087;-63
2022/06/26 09:47:21;;;;;;;11.77;6.32;;;;;;;;;;10290831;28;20090;-63
2022/06/26 09:52:22;;;;;;;11.80;5.05;;;;;;;;;;10299246;28;20084;-63
2022/06/26 09:57:20;;;;;;;16.83;8.40;;;;;;;;;;10278569;28;20076;-63
2022/06/26 10:07:37;;;;;;;10.13;5.47;;;;;;;;;;10289990;28;20463;-64
2022/06/26 10:12:36;;;;;;;10.32;5.72;;;;;;;;;;10280066;28;20071;-64
2022/06/26 10:17:43;;;;;;;8.75;5.45;;;;;;;;;;10278003;28;20065;-64
2022/06/26 10:22:44;;;;;;;12.55;6.78;;;;;;;;;;10275336;28;20076;-64
2022/06/26 10:27:42;;;;;;;12.90;6.93;;;;;;;;;;10280367;28;20072;-63
2022/06/26 10:32:41;;;;;;;12.18;6.20;;;;;;;;;;10276651;28;20075;-64
2022/06/26 10:37:41;;;;;;;12.98;6.90;;;;;;;;;;10276821;28;20523;-65
2022/06/26 10:42:54;;;;;;;13.18;6.72;;;;;;;;;;10276223;28;20068;-64
2022/06/26 10:47:53;;;;;;;15.63;7.55;;;;;;;;;;10276850;28;20458;-64
2022/06/26 10:52:51;;;;;;;12.57;6.82;;;;;;;;;;10276083;28;20408;-65
2022/06/26 10:57:51;;;;;;;10.98;6.10;;;;;;;;;;10276963;28;20115;-64
2022/06/26 11:02:49;;;;;;;11.70;7.35;;;;;;;;;;10276695;28;20147;-64
2022/06/26 11:07:49;;;;;;;17.58;9.68;;;;;;;;;;10276985;28;20077;-64
2022/06/26 11:12:49;;;;;;;21.35;9.52;;;;;;;;;;10276488;28;20523;-64
2022/06/26 11:17:53;;;;;;;11.82;9.15;;;;;;;;;;10278028;28;20048;-64
2022/06/26 11:22:51;;;;;;;14.15;9.20;;;;;;;;;;10275672;28;20429;-63
2022/06/26 11:27:52;;;;;;;12.77;7.70;;;;;;;;;;10276072;28;20120;-63
2022/06/26 11:32:50;;;;;;;12.70;6.97;;;;;;;;;;10299851;28;20064;-63
2022/06/26 11:37:50;;;;;;;10.48;7.38;;;;;;;;;;10279117;28;20076;-63
2022/06/26 11:42:54;;;;;;;14.30;6.53;;;;;;;;;;10298685;28;20083;-63
2022/06/26 11:47:58;;;;;;;14.15;6.03;;;;;;;;;;10283060;28;20517;-62
2022/06/26 11:52:59;;;;;;;14.85;6.32;;;;;;;;;;10278706;28;20065;-63
2022/06/26 11:57:57;;;;;;;17.90;6.70;;;;;;;;;;10288621;28;20103;-63
2022/06/26 12:02:56;;;;;;;14.95;5.88;;;;;;;;;;10284247;28;20064;-63
2022/06/26 12:07:54;;;;;;;12.07;5.80;;;;;;;;;;10284392;28;20107;-64
2022/06/26 12:12:54;;;;;;;9.85;6.53;;;;;;;;;;10285950;28;20071;-63
2022/06/26 12:17:59;;;;;;;8.45;6.13;;;;;;;;;;10283502;28;20072;-64
2022/06/26 12:22:58;;;;;;;11.20;5.75;;;;;;;;;;10284417;28;20067;-63
2022/06/26 12:27:58;;;;;;;13.00;5.43;;;;;;;;;;10289668;28;20521;-63
2022/06/26 12:32:56;;;;;;;9.82;5.55;;;;;;;;;;10280697;28;20079;-63
2022/06/26 12:37:56;;;;;;;9.73;5.43;;;;;;;;;;10281425;28;20470;-64
2022/06/26 12:42:54;;;;;;;8.10;6.13;;;;;;;;;;10280510;28;20121;-64
2022/06/26 12:47:54;;;;;;;12.25;6.07;;;;;;;;;;10281488;28;20056;-65
2022/06/26 12:52:52;;;;;;;7.95;5.90;;;;;;;;;;10278795;28;20413;-63
2022/06/26 12:57:51;;;;;;;13.93;6.43;;;;;;;;;;10281743;28;20075;-65
2022/06/26 13:02:49;;;;;;;15.10;5.80;;;;;;;;;;10287009;28;20069;-63
2022/06/26 13:07:49;;;;;;;9.15;5.82;;;;;;;;;;10288118;28;20060;-64
2022/06/26 13:12:47;;;;;;;9.52;5.80;;;;;;;;;;10281666;28;20064;-65
2022/06/26 13:17:45;;;;;;;11.48;6.47;;;;;;;;;;10284243;28;20076;-64
2022/06/26 13:22:44;;;;;;;12.02;6.95;;;;;;;;;;10288154;28;20080;-64
2022/06/26 13:27:43;;;;;;;9.82;7.35;;;;;;;;;;10283759;28;20064;-64
2022/06/26 13:32:42;;;;;;;16.60;7.68;;;;;;;;;;10295001;28;20449;-63
2022/06/26 13:37:42;;;;;;;12.40;7.47;;;;;;;;;;10291312;28;20068;-64
2022/06/26 13:42:41;;;;;;;12.57;7.07;;;;;;;;;;10281989;28;20091;-64
2022/06/26 13:47:42;;;;;;;9.27;7.60;;;;;;;;;;10278924;28;20472;-64
2022/06/26 13:52:40;;;;;;;16.48;8.20;;;;;;;;;;10286912;28;20076;-65
2022/06/26 13:57:39;;;;;;;10.23;7.15;;;;;;;;;;10293673;28;20509;-64
2022/06/26 14:02:41;;;;;;;10.80;7.20;;;;;;;;;;10285268;28;20461;-64
2022/06/26 14:07:40;;;;;;;12.38;7.32;;;;;;;;;;10285182;28;20061;-64
2022/06/26 14:12:38;;;;;;;11.45;8.73;;;;;;;;;;10276919;28;20114;-64
2022/06/26 14:17:40;;;;;;;9.48;7.55;;;;;;;;;;10276302;28;20072;-63
2022/06/26 14:27:56;;;;;;;19.85;7.88;;;;;;;;;;10282175;28;20153;-64
2022/06/26 14:33:00;;;;;;;10.80;7.45;;;;;;;;;;10281553;28;20080;-64
2022/06/26 14:37:59;;;;;;;17.05;8.60;;;;;;;;;;10277372;28;20079;-64
2022/06/26 14:42:57;;;;;;;11.43;7.20;;;;;;;;;;10277377;28;20110;-64
2022/06/26 14:47:56;;;;;;;12.25;8.82;;;;;;;;;;10277109;28;20084;-64
2022/06/26 14:52:54;;;;;;;9.90;7.40;;;;;;;;;;10284051;28;20072;-65
2022/06/26 14:57:54;;;;;;;9.07;7.40;;;;;;;;;;10273202;28;20099;-64
2022/06/26 15:02:52;;;;;;;11.25;7.72;;;;;;;;;;10286118;28;20091;-64
2022/06/26 15:07:51;;;;;;;17.10;7.95;;;;;;;;;;10281676;28;20072;-65
2022/06/26 15:12:49;;;;;;;12.50;6.97;;;;;;;;;;10279131;28;20049;-64
2022/06/26 15:17:49;;;;;;;14.10;7.57;;;;;;;;;;10286026;28;20065;-65
2022/06/26 15:22:54;;;;;;;9.88;6.90;;;;;;;;;;10284358;28;20080;-63
2022/06/26 15:27:52;;;;;;;9.93;7.78;;;;;;;;;;10284321;28;20115;-64
2022/06/26 15:32:52;;;;;;;6.93;4.40;;;;;;;;;;10284203;28;20060;-64
2022/06/26 15:37:50;;;;;;;4.85;3.78;;;;;;;;;;10285862;28;20076;-64
2022/06/26 15:42:49;;;;;;;9.10;6.22;;;;;;;;;;10286740;28;20068;-64
2022/06/26 15:47:47;;;;;;;14.18;3.92;;;;;;;;;;10282331;28;20075;-64
2022/06/26 15:52:47;;;;;;;7.05;3.92;;;;;;;;;;10280892;28;20076;-64
2022/06/26 15:57:45;;;;;;;6.70;4.00;;;;;;;;;;10284377;28;20068;-64
2022/06/26 16:02:43;;;;;;;6.18;5.10;;;;;;;;;;10286679;28;20060;-64
2022/06/26 16:07:42;;;;;;;7.82;4.70;;;;;;;;;;10278766;28;20095;-64
2022/06/26 16:12:41;;;;;;;6.63;5.07;;;;;;;;;;10283827;28;20080;-63
2022/06/26 16:17:40;;;;;;;6.85;5.45;;;;;;;;;;10286857;28;20072;-64
2022/06/26 16:27:55;;;;;;;10.85;6.53;;;;;;;;;;10290767;28;20064;-64
2022/06/26 16:32:54;;;;;;;8.43;6.43;;;;;;;;;;10285368;28;20528;-66
2022/06/26 16:37:52;;;;;;;10.32;6.40;;;;;;;;;;10274368;28;20071;-67
2022/06/26 16:42:51;;;;;;;11.52;7.03;;;;;;;;;;10276290;28;20072;-66
2022/06/26 16:47:56;;;;;;;10.48;7.30;;;;;;;;;;10301741;28;20103;-66
2022/06/26 16:52:54;;;;;;;8.60;6.18;;;;;;;;;;10280119;28;20544;-63
2022/06/26 16:57:53;;;;;;;9.35;6.95;;;;;;;;;;10276500;28;20175;-63
2022/06/26 17:02:51;;;;;;;12.18;6.78;;;;;;;;;;10283082;28;20517;-64
2022/06/26 17:07:51;;;;;;;11.32;6.65;;;;;;;;;;10278596;28;20073;-63
2022/06/26 17:12:49;;;;;;;8.43;6.53;;;;;;;;;;10285165;28;20071;-64
2022/06/26 17:17:51;;;;;;;15.75;7.40;;;;;;;;;;10282578;28;20079;-63
2022/06/26 17:22:51;;;;;;;9.80;5.88;;;;;;;;;;10278096;28;20545;-64
2022/06/26 17:27:50;;;;;;;12.48;5.43;;;;;;;;;;10287469;28;20084;-63
2022/06/26 17:32:48;;;;;;;12.07;6.32;;;;;;;;;;10279747;28;20107;-63
2022/06/26 17:37:46;;;;;;;7.25;5.88;;;;;;;;;;10279256;28;20076;-63
2022/06/26 17:42:46;;;;;;;11.32;6.47;;;;;;;;;;10278284;28;20068;-63
2022/06/26 17:47:51;;;;;;;7.30;6.15;;;;;;;;;;10281929;28;20076;-63
2022/06/26 17:52:50;;;;;;;12.95;7.07;;;;;;;;;;10281776;28;20079;-63
2022/06/26 17:57:50;;;;;;;7.22;5.88;;;;;;;;;;10280859;28;20080;-64
2022/06/26 18:02:48;;;;;;;9.90;7.28;;;;;;;;;;10282958;28;20077;-63
2022/06/26 18:07:47;;;;;;;7.90;5.32;;;;;;;;;;10285373;28;20072;-63
2022/06/26 18:12:46;;;;;;;13.32;6.30;;;;;;;;;;10284069;28;20075;-62
2022/06/26 18:17:46;;;;;;;8.93;5.32;;;;;;;;;;10312262;28;20575;-63
2022/06/26 18:22:44;;;;;;;11.55;6.05;;;;;;;;;;10303079;28;20538;-62
2022/06/26 18:27:44;;;;;;;31.35;28.08;;;;;;;;;;10277362;28;20423;-63
2022/06/26 18:32:42;;;;;;;55.25;44.60;;;;;;;;;;10277323;28;20076;-63
2022/06/26 18:37:43;;;;;;;52.97;41.42;;;;;;;;;;10281753;28;20073;-63
2022/06/26 18:42:42;;;;;;;36.58;23.95;;;;;;;;;;10274719;28;20505;-61
2022/06/26 18:47:41;;;;;;;31.33;18.05;;;;;;;;;;10283780;28;20068;-63
2022/06/26 18:52:44;;;;;;;18.15;13.02;;;;;;;;;;10281208;28;20083;-61
2022/06/26 18:57:43;;;;;;;15.43;10.57;;;;;;;;;;10282627;28;20110;-61
2022/06/26 19:02:41;;;;;;;10.98;7.90;;;;;;;;;;10285840;28;20687;-62
2022/06/26 19:07:39;;;;;;;7.40;6.65;;;;;;;;;;10285281;28;20639;-63
2022/06/26 19:17:58;;;;;;;11.95;6.30;;;;;;;;;;10291726;28;20091;-62
2022/06/26 19:22:57;;;;;;;8.75;6.13;;;;;;;;;;10279898;28;20080;-63
2022/06/26 19:27:57;;;;;;;10.65;6.25;;;;;;;;;;10314511;28;20122;-63
2022/06/26 19:32:56;;;;;;;6.82;5.22;;;;;;;;;;10309019;28;20100;-63
2022/06/26 19:37:54;;;;;;;10.80;4.70;;;;;;;;;;10284441;28;20095;-62
2022/06/26 19:42:52;;;;;;;5.07;4.57;;;;;;;;;;10318277;28;20462;-63
2022/06/26 19:47:52;;;;;;;5.38;4.88;;;;;;;;;;10320965;28;20577;-63
2022/06/26 19:52:50;;;;;;;8.50;4.55;;;;;;;;;;10320808;28;20076;-63
2022/06/26 19:57:50;;;;;;;9.68;4.63;;;;;;;;;;10292899;28;20080;-62
2022/06/26 20:02:48;;;;;;;6.45;4.75;;;;;;;;;;10283584;28;20518;-62
2022/06/26 20:07:48;;;;;;;9.93;6.32;;;;;;;;;;10284070;28;20083;-62
2022/06/26 20:13:07;;;;;;;6.75;4.85;;;;;;;;;;10280805;28;20041;-63
2022/06/26 20:18:05;;;;;;;12.68;5.57;;;;;;;;;;10282040;28;20076;-63
2022/06/26 20:23:05;;;;;;;8.40;6.80;;;;;;;;;;10282710;28;20084;-63
2022/06/26 20:28:03;;;;;;;8.75;6.20;;;;;;;;;;10282050;28;20455;-63
2022/06/26 20:33:01;;;;;;;8.57;5.90;;;;;;;;;;10298878;28;20455;-63
2022/06/26 20:38:00;;;;;;;8.75;6.30;;;;;;;;;;10280853;28;20076;-63
2022/06/26 20:43:00;;;;;;;10.38;6.63;;;;;;;;;;10281055;28;20083;-63
2022/06/26 20:47:58;;;;;;;7.30;6.57;;;;;;;;;;10279637;28;20076;-63
2022/06/26 20:52:58;;;;;;;10.23;6.80;;;;;;;;;;10279255;28;20241;-63
2022/06/26 20:57:56;;;;;;;10.00;7.10;;;;;;;;;;10279051;28;20084;-63
2022/06/26 21:02:57;;;;;;;7.95;6.88;;;;;;;;;;10279030;28;20494;-64
2022/06/26 21:07:55;;;;;;;8.35;6.40;;;;;;;;;;10290081;28;20068;-64
2022/06/26 21:12:54;;;;;;;9.23;6.20;;;;;;;;;;10297526;28;20072;-64
2022/06/26 21:17:52;;;;;;;9.18;6.93;;;;;;;;;;10275721;28;20091;-63
2022/06/26 21:22:52;;;;;;;11.07;6.53;;;;;;;;;;10273645;28;20096;-63
2022/06/26 21:27:50;;;;;;;13.10;7.28;;;;;;;;;;10276311;28;20450;-63
2022/06/26 21:32:49;;;;;;;9.32;6.55;;;;;;;;;;10277987;28;20041;-63
2022/06/26 21:37:50;;;;;;;14.25;7.57;;;;;;;;;;10278918;28;20076;-63
2022/06/26 21:42:49;;;;;;;9.82;6.65;;;;;;;;;;10277583;28;20049;-63
2022/06/26 21:47:48;;;;;;;11.05;6.25;;;;;;;;;;10277471;28;20068;-63
2022/06/26 21:52:47;;;;;;;8.20;6.25;;;;;;;;;;10277106;28;20072;-63
2022/06/26 21:57:46;;;;;;;13.52;7.03;;;;;;;;;;10277312;28;20465;-64
2022/06/26 22:02:45;;;;;;;8.13;5.93;;;;;;;;;;10277123;28;20091;-63
2022/06/26 22:07:44;;;;;;;7.85;6.05;;;;;;;;;;10276390;28;20274;-64
2022/06/26 22:12:42;;;;;;;7.25;6.53;;;;;;;;;;10280489;28;20490;-63
2022/06/26 22:17:41;;;;;;;8.10;5.78;;;;;;;;;;10277577;28;20069;-64
2022/06/26 22:22:41;;;;;;;5.78;5.18;;;;;;;;;;10278273;28;20411;-64
2022/06/26 22:27:54;;;;;;;5.90;4.63;;;;;;;;;;10276270;28;20049;-64
2022/06/26 22:32:53;;;;;;;7.23;4.90;;;;;;;;;;10275405;28;20053;-64
2022/06/26 22:37:53;;;;;;;5.18;4.68;;;;;;;;;;10274868;28;20085;-64
2022/06/26 22:42:51;;;;;;;7.30;4.68;;;;;;;;;;10279451;28;20072;-64
2022/06/26 22:47:50;;;;;;;11.00;5.22;;;;;;;;;;10279409;28;20053;-64
2022/06/26 22:52:48;;;;;;;9.35;5.32;;;;;;;;;;10276545;28;20427;-64
2022/06/26 22:57:48;;;;;;;6.35;4.60;;;;;;;;;;10276891;28;20091;-63
2022/06/26 23:02:47;;;;;;;6.63;5.45;;;;;;;;;;10276603;28;20068;-64
2022/06/26 23:07:46;;;;;;;6.88;5.20;;;;;;;;;;10276509;28;20069;-63
2022/06/26 23:12:45;;;;;;;6.68;5.38;;;;;;;;;;10276584;28;20084;-63
2022/06/26 23:17:44;;;;;;;9.63;5.13;;;;;;;;;;10276242;28;20129;-64
2022/06/26 23:22:43;;;;;;;7.95;5.57;;;;;;;;;;10275627;28;20089;-64
2022/06/26 23:27:41;;;;;;;7.40;5.03;;;;;;;;;;10276109;28;20473;-63
2022/06/26 23:32:39;;;;;;;7.18;4.32;;;;;;;;;;10276167;28;20084;-63
2022/06/26 23:37:40;;;;;;;6.30;4.88;;;;;;;;;;10276270;28;20083;-63
2022/06/26 23:42:38;;;;;;;5.30;4.20;;;;;;;;;;10275975;28;20080;-63
2022/06/26 23:47:39;;;;;;;6.85;4.10;;;;;;;;;;10276506;28;20465;-63
2022/06/26 23:52:37;;;;;;;9.60;4.38;;;;;;;;;;10283583;28;20080;-63
2022/06/26 23:57:37;;;;;;;4.78;4.32;;;;;;;;;;10282793;28;20079;-63
